createdAt,value
2019-03-26T00:01:42.640Z,65.41
2019-03-26T00:04:12.634Z,65.14
2019-03-26T00:06:42.597Z,64.40
2019-03-26T00:09:12.574Z,64.80
2019-03-26T00:11:42.521Z,64.77
2019-03-26T00:14:12.523Z,65.86
2019-03-26T00:16:42.462Z,65.27
2019-03-26T00:19:12.455Z,65.08
2019-03-26T00:21:42.404Z,65.51
2019-03-26T00:24:12.360Z,64.31
2019-03-26T00:26:42.331Z,65.18
2019-03-26T00:29:12.317Z,66.05
2019-03-26T00:31:42.257Z,66.49
2019-03-26T00:34:19.119Z,66.43
2019-03-26T00:36:42.199Z,66.90
2019-03-26T00:39:12.160Z,66.63
2019-03-26T00:41:42.124Z,67.18
2019-03-26T00:44:12.106Z,67.33
2019-03-26T00:46:42.099Z,66.75
2019-03-26T00:49:12.039Z,67.33
2019-03-26T00:51:41.967Z,67.62
2019-03-26T00:54:11.943Z,65.58
2019-03-26T00:56:41.919Z,66.75
2019-03-26T00:59:11.902Z,67.14
2019-03-26T01:01:41.902Z,67.50
2019-03-26T01:04:11.860Z,67.46
2019-03-26T01:06:41.857Z,67.51
2019-03-26T01:09:11.815Z,67.42
2019-03-26T01:11:41.793Z,67.88
2019-03-26T01:14:11.744Z,67.71
2019-03-26T01:16:41.706Z,67.91
2019-03-26T01:19:11.677Z,68.09
2019-03-26T01:21:41.662Z,67.72
2019-03-26T01:24:11.656Z,67.68
2019-03-26T01:26:41.615Z,68.26
2019-03-26T01:29:11.557Z,68.33
2019-03-26T01:31:41.553Z,68.13
2019-03-26T01:34:11.522Z,68.58
2019-03-26T01:36:41.500Z,68.04
2019-03-26T01:39:11.464Z,67.69
2019-03-26T01:41:41.430Z,67.92
2019-03-26T01:44:11.371Z,67.38
2019-03-26T01:46:41.343Z,67.39
2019-03-26T01:49:11.303Z,67.57
2019-03-26T01:51:41.275Z,68.07
2019-03-26T01:54:11.258Z,67.93
2019-03-26T01:56:41.223Z,68.32
2019-03-26T01:59:11.204Z,67.87
2019-03-26T02:01:41.191Z,67.94
2019-03-26T02:04:11.158Z,67.77
2019-03-26T02:06:41.118Z,67.31
2019-03-26T02:09:11.086Z,67.53
2019-03-26T02:11:41.045Z,67.64
2019-03-26T02:14:11.008Z,67.93
2019-03-26T02:16:40.975Z,68.71
2019-03-26T02:19:10.972Z,68.70
2019-03-26T02:21:40.908Z,68.87
2019-03-26T02:24:10.882Z,69.40
2019-03-26T02:26:40.853Z,68.98
2019-03-26T02:29:10.844Z,69.05
2019-03-26T02:31:40.802Z,69.53
2019-03-26T02:34:10.766Z,69.54
2019-03-26T02:36:40.745Z,69.55
2019-03-26T02:39:10.756Z,69.98
2019-03-26T02:41:40.710Z,70.18
2019-03-26T02:44:10.678Z,69.86
2019-03-26T02:46:40.663Z,69.85
2019-03-26T02:49:10.614Z,69.67
2019-03-26T02:51:40.595Z,69.80
2019-03-26T02:54:10.557Z,69.78
2019-03-26T02:56:40.546Z,69.79
2019-03-26T02:59:10.520Z,70.04
2019-03-26T03:01:40.521Z,70.21
2019-03-26T03:04:10.533Z,70.06
2019-03-26T03:06:40.493Z,70.15
2019-03-26T03:09:10.455Z,70.20
2019-03-26T03:11:40.415Z,70.13
2019-03-26T03:14:10.386Z,69.47
2019-03-26T03:16:40.397Z,69.51
2019-03-26T03:19:10.361Z,69.67
2019-03-26T03:21:40.322Z,69.18
2019-03-26T03:24:10.302Z,69.11
2019-03-26T03:26:40.268Z,69.39
2019-03-26T03:29:10.274Z,69.51
2019-03-26T03:31:40.228Z,68.04
2019-03-26T03:34:10.251Z,67.46
2019-03-26T03:36:40.153Z,68.96
2019-03-26T03:39:10.097Z,69.87
2019-03-26T03:41:40.074Z,69.67
2019-03-26T03:44:10.016Z,69.89
2019-03-26T03:46:40.659Z,69.97
2019-03-26T03:49:10.624Z,70.13
2019-03-26T03:51:40.601Z,70.06
2019-03-26T03:54:10.582Z,70.41
2019-03-26T03:56:41.329Z,70.60
2019-03-26T03:59:11.355Z,70.40
2019-03-26T04:01:41.376Z,70.19
2019-03-26T04:04:11.323Z,70.42
2019-03-26T04:06:41.301Z,70.39
2019-03-26T04:09:11.303Z,70.40
2019-03-26T04:11:41.281Z,70.54
2019-03-26T04:14:11.232Z,70.55
2019-03-26T04:16:41.213Z,70.98
2019-03-26T04:19:11.183Z,70.96
2019-03-26T04:21:41.127Z,70.42
2019-03-26T04:24:11.099Z,70.21
2019-03-26T04:26:41.101Z,70.39
2019-03-26T04:29:11.016Z,70.45
2019-03-26T04:31:40.984Z,70.82
2019-03-26T04:34:10.951Z,71.21
2019-03-26T04:36:40.910Z,71.29
2019-03-26T04:39:10.874Z,71.32
2019-03-26T04:41:40.856Z,71.31
2019-03-26T04:44:10.801Z,70.01
2019-03-26T04:46:40.788Z,71.12
2019-03-26T04:49:10.750Z,70.85
2019-03-26T04:51:40.739Z,71.00
2019-03-26T04:54:10.710Z,70.95
2019-03-26T04:56:40.673Z,71.06
2019-03-26T04:59:10.692Z,71.07
2019-03-26T05:01:40.722Z,71.05
2019-03-26T05:04:10.682Z,71.25
2019-03-26T05:06:40.624Z,70.96
2019-03-26T05:09:10.611Z,71.03
2019-03-26T05:11:40.574Z,71.12
2019-03-26T05:14:10.552Z,71.40
2019-03-26T05:16:40.527Z,69.71
2019-03-26T05:19:10.496Z,70.61
2019-03-26T05:21:40.485Z,70.85
2019-03-26T05:24:10.478Z,70.75
2019-03-26T05:26:40.431Z,71.06
2019-03-26T05:29:10.474Z,71.03
2019-03-26T05:31:40.460Z,70.60
2019-03-26T05:34:10.471Z,70.11
2019-03-26T05:36:50.602Z,70.24
2019-03-26T05:39:10.401Z,70.28
2019-03-26T05:41:40.414Z,70.31
2019-03-26T05:44:10.414Z,70.12
2019-03-26T05:46:40.380Z,69.83
2019-03-26T05:49:10.370Z,69.78
2019-03-26T05:51:40.345Z,69.55
2019-03-26T05:54:10.351Z,69.88
2019-03-26T05:56:40.311Z,69.92
2019-03-26T05:59:10.442Z,69.73
2019-03-26T06:01:40.421Z,69.88
2019-03-26T06:04:10.464Z,69.54
2019-03-26T06:06:41.542Z,69.55
2019-03-26T06:09:11.903Z,69.36
2019-03-26T06:11:41.873Z,69.36
2019-03-26T06:14:11.872Z,69.36
2019-03-26T06:16:41.849Z,69.05
2019-03-26T06:19:11.820Z,68.32
2019-03-26T06:21:41.786Z,68.42
2019-03-26T06:24:11.763Z,68.60
2019-03-26T06:26:41.754Z,69.05
2019-03-26T06:29:11.859Z,69.00
2019-03-26T06:31:41.839Z,69.04
2019-03-26T06:34:11.804Z,69.31
2019-03-26T06:36:41.763Z,69.21
2019-03-26T06:39:11.746Z,68.44
2019-03-26T06:41:41.710Z,68.47
2019-03-26T06:44:11.696Z,68.58
2019-03-26T06:46:41.648Z,67.41
2019-03-26T06:49:11.610Z,68.11
2019-03-26T06:51:41.599Z,66.81
2019-03-26T06:54:11.569Z,65.63
2019-03-26T06:56:41.541Z,64.46
2019-03-26T06:59:11.585Z,64.35
2019-03-26T07:01:41.594Z,65.21
2019-03-26T07:04:11.708Z,65.84
2019-03-26T07:06:41.733Z,66.96
2019-03-26T07:09:11.857Z,66.59
2019-03-26T07:11:41.851Z,66.76
2019-03-26T07:14:11.890Z,67.07
2019-03-26T07:16:41.853Z,67.12
2019-03-26T07:19:11.827Z,67.71
2019-03-26T07:21:49.549Z,69.27
2019-03-26T07:24:11.802Z,69.53
2019-03-26T07:26:41.797Z,69.89
2019-03-26T07:29:11.828Z,70.55
2019-03-26T07:31:41.792Z,70.73
2019-03-26T07:34:11.789Z,69.68
2019-03-26T07:36:41.751Z,69.53
2019-03-26T07:39:11.740Z,69.31
2019-03-26T07:41:41.719Z,68.39
2019-03-26T07:44:11.788Z,68.77
2019-03-26T07:46:41.717Z,68.76
2019-03-26T07:49:11.659Z,67.81
2019-03-26T07:51:41.628Z,68.41
2019-03-26T07:54:11.621Z,68.20
2019-03-26T07:56:41.595Z,64.37
2019-03-26T07:59:11.565Z,60.98
2019-03-26T08:01:41.631Z,57.96
2019-03-26T08:04:12.692Z,57.47
2019-03-26T08:06:41.650Z,55.38
2019-03-26T08:09:11.670Z,57.12
2019-03-26T08:11:44.907Z,57.17
2019-03-26T08:14:24.785Z,57.40
2019-03-26T08:16:58.171Z,55.90
2019-03-26T08:19:28.512Z,55.13
2019-03-26T08:21:59.019Z,55.79
2019-03-26T08:24:30.290Z,55.43
2019-03-26T08:27:00.994Z,56.01
2019-03-26T08:29:31.172Z,54.88
2019-03-26T08:32:01.376Z,53.56
2019-03-26T08:34:31.847Z,54.77
2019-03-26T08:37:02.399Z,54.57
2019-03-26T08:39:33.640Z,55.29
2019-03-26T08:42:04.208Z,54.41
2019-03-26T08:44:34.875Z,55.62
2019-03-26T08:47:05.065Z,56.21
2019-03-26T08:49:35.443Z,57.95
2019-03-26T08:52:05.985Z,58.49
2019-03-26T08:54:36.211Z,58.13
2019-03-26T08:57:06.616Z,58.45
2019-03-26T08:59:37.326Z,56.76
2019-03-26T09:02:08.066Z,57.90
2019-03-26T09:04:38.142Z,58.26
2019-03-26T09:07:11.018Z,58.82
2019-03-26T09:09:39.951Z,59.13
2019-03-26T09:12:13.102Z,60.24
2019-03-26T09:14:43.397Z,61.09
2019-03-26T09:17:13.452Z,61.48
2019-03-26T09:19:54.868Z,61.41
2019-03-26T09:22:27.951Z,60.60
2019-03-26T09:25:01.197Z,60.32
2019-03-26T09:27:34.250Z,60.86
2019-03-26T09:30:06.550Z,60.94
2019-03-26T09:32:36.718Z,61.54
2019-03-26T09:35:10.468Z,60.90
2019-03-26T09:37:47.795Z,60.95
2019-03-26T09:40:18.371Z,60.78
2019-03-26T09:42:55.460Z,60.06
2019-03-26T09:45:26.439Z,59.30
2019-03-26T09:47:56.784Z,59.73
2019-03-26T09:50:37.384Z,59.60
2019-03-26T09:53:05.466Z,59.94
2019-03-26T09:55:35.595Z,59.87
2019-03-26T09:58:06.021Z,59.63
2019-03-26T10:00:36.338Z,59.41
2019-03-26T10:03:09.567Z,59.37
2019-03-26T10:05:43.938Z,59.04
2019-03-26T10:08:17.631Z,59.68
2019-03-26T10:10:45.447Z,59.34
2019-03-26T10:13:15.489Z,58.46
2019-03-26T10:15:50.560Z,58.64
2019-03-26T10:18:18.584Z,58.37
2019-03-26T10:20:50.928Z,57.23
2019-03-26T10:23:21.251Z,56.55
2019-03-26T10:25:51.614Z,56.33
2019-03-26T10:28:30.183Z,56.46
2019-03-26T10:31:07.538Z,56.33
2019-03-26T10:33:38.036Z,54.88
2019-03-26T10:36:11.586Z,54.74
2019-03-26T10:38:41.772Z,53.68
2019-03-26T10:41:12.351Z,53.41
2019-03-26T10:43:44.567Z,54.12
2019-03-26T10:46:15.082Z,52.38
2019-03-26T10:48:48.093Z,51.24
2019-03-26T10:51:21.919Z,52.12
2019-03-26T10:54:00.641Z,49.59
2019-03-26T10:56:32.446Z,50.16
2019-03-26T10:59:04.145Z,50.76
2019-03-26T11:01:32.386Z,50.74
2019-03-26T11:04:02.601Z,49.71
2019-03-26T11:06:38.725Z,49.98
2019-03-26T11:09:23.114Z,51.15
2019-03-26T11:11:46.099Z,50.81
2019-03-26T11:14:19.443Z,50.85
2019-03-26T11:16:49.736Z,49.33
2019-03-26T11:19:22.533Z,49.45
2019-03-26T11:21:55.431Z,50.58
2019-03-26T11:24:30.527Z,50.66
2019-03-26T11:27:01.393Z,50.86
2019-03-26T11:29:31.747Z,51.44
2019-03-26T11:32:02.122Z,51.33
2019-03-26T11:34:35.280Z,52.09
2019-03-26T11:37:08.669Z,52.39
2019-03-26T11:39:38.797Z,53.85
2019-03-26T11:42:09.418Z,54.17
2019-03-26T11:44:40.177Z,54.73
2019-03-26T11:47:15.153Z,54.05
2019-03-26T11:49:45.704Z,54.97
2019-03-26T11:52:16.448Z,55.06
2019-03-26T11:54:46.724Z,54.65
2019-03-26T11:57:19.764Z,54.12
2019-03-26T11:59:50.291Z,53.47
2019-03-26T12:02:23.250Z,53.34
2019-03-26T12:04:55.609Z,53.55
2019-03-26T12:07:23.801Z,53.69
2019-03-26T12:09:54.180Z,52.83
2019-03-26T12:12:30.698Z,53.40
2019-03-26T12:15:01.590Z,52.33
2019-03-26T12:17:31.714Z,52.43
2019-03-26T12:20:05.025Z,51.72
2019-03-26T12:22:38.612Z,50.73
2019-03-26T12:25:09.171Z,50.92
2019-03-26T12:27:42.006Z,50.57
2019-03-26T12:30:15.090Z,50.88
2019-03-26T12:32:48.360Z,49.33
2019-03-26T12:35:31.762Z,50.25
2019-03-26T12:38:02.514Z,50.11
2019-03-26T12:40:32.594Z,50.00
2019-03-26T12:43:08.072Z,49.20
2019-03-26T12:45:38.397Z,49.90
2019-03-26T12:48:08.696Z,49.51
2019-03-26T12:50:38.847Z,49.32
2019-03-26T12:53:12.845Z,48.88
2019-03-26T12:55:41.837Z,49.33
2019-03-26T12:58:12.257Z,50.29
2019-03-26T13:00:42.543Z,50.63
2019-03-26T13:03:15.657Z,50.51
2019-03-26T13:05:46.393Z,50.49
2019-03-26T13:08:24.481Z,51.34
2019-03-26T13:10:57.292Z,51.12
2019-03-26T13:13:27.580Z,52.08
2019-03-26T13:15:57.657Z,52.13
2019-03-26T13:18:31.128Z,51.44
2019-03-26T13:21:01.444Z,52.32
2019-03-26T13:23:32.464Z,52.37
2019-03-26T13:26:06.145Z,52.83
2019-03-26T13:28:36.817Z,52.55
2019-03-26T13:31:06.966Z,52.90
2019-03-26T13:33:37.246Z,52.94
2019-03-26T13:36:07.646Z,52.66
2019-03-26T13:38:38.268Z,53.53
2019-03-26T13:41:11.364Z,53.99
2019-03-26T13:43:41.724Z,53.35
2019-03-26T13:46:17.922Z,53.06
2019-03-26T13:48:51.863Z,52.29
2019-03-26T13:51:22.017Z,52.44
2019-03-26T13:53:54.720Z,51.88
2019-03-26T13:56:32.558Z,52.39
2019-03-26T13:59:08.292Z,52.07
2019-03-26T14:01:38.657Z,52.30
2019-03-26T14:04:08.716Z,52.31
2019-03-26T14:06:39.000Z,50.96
2019-03-26T14:09:17.453Z,50.21
2019-03-26T14:11:47.467Z,50.47
2019-03-26T14:14:19.761Z,50.31
2019-03-26T14:16:49.772Z,50.68
2019-03-26T14:19:26.185Z,49.19
2019-03-26T14:21:58.630Z,47.35
2019-03-26T14:24:29.209Z,47.40
2019-03-26T14:26:59.211Z,48.03
2019-03-26T14:29:33.161Z,48.45
2019-03-26T14:32:20.259Z,48.49
2019-03-26T14:34:54.902Z,48.77
2019-03-26T14:37:26.568Z,49.20
2019-03-26T14:39:58.541Z,49.42
2019-03-26T14:42:31.911Z,47.83
2019-03-26T14:45:07.917Z,48.56
2019-03-26T14:47:38.495Z,49.36
2019-03-26T14:50:09.072Z,47.35
2019-03-26T14:52:43.020Z,47.77
2019-03-26T14:55:15.706Z,47.38
2019-03-26T14:57:46.285Z,47.84
2019-03-26T15:00:19.017Z,48.34
2019-03-26T15:02:52.160Z,49.57
2019-03-26T15:05:25.533Z,49.44
2019-03-26T15:07:58.442Z,49.78
2019-03-26T15:10:28.533Z,49.36
2019-03-26T15:13:01.650Z,49.79
2019-03-26T15:15:36.578Z,50.03
2019-03-26T15:18:06.916Z,50.27
2019-03-26T15:20:40.402Z,50.62
2019-03-26T15:23:13.571Z,51.33
2019-03-26T15:25:45.505Z,51.68
2019-03-26T15:28:14.237Z,50.96
2019-03-26T15:30:48.205Z,51.86
2019-03-26T15:33:20.690Z,51.88
2019-03-26T15:35:51.208Z,51.78
2019-03-26T15:38:21.400Z,51.81
2019-03-26T15:40:59.467Z,50.50
2019-03-26T15:43:29.404Z,50.69
2019-03-26T15:45:59.361Z,50.60
2019-03-26T15:48:29.350Z,50.61
2019-03-26T15:50:59.310Z,50.23
2019-03-26T15:53:29.318Z,50.48
2019-03-26T15:55:59.250Z,49.84
2019-03-26T15:58:29.234Z,49.63
2019-03-26T16:00:59.198Z,49.76
2019-03-26T16:03:29.219Z,50.03
2019-03-26T16:05:59.203Z,49.01
2019-03-26T16:08:29.157Z,49.56
2019-03-26T16:10:59.111Z,48.78
2019-03-26T16:13:29.077Z,47.54
2019-03-26T16:16:00.669Z,48.38
2019-03-26T16:18:32.392Z,49.60
2019-03-26T16:21:03.964Z,49.55
2019-03-26T16:23:39.007Z,49.24
2019-03-26T16:26:11.829Z,49.17
2019-03-26T16:28:42.366Z,50.13
2019-03-26T16:31:13.879Z,50.71
2019-03-26T16:33:45.228Z,51.27
2019-03-26T16:36:19.775Z,51.91
2019-03-26T16:38:51.164Z,52.28
2019-03-26T16:41:22.920Z,53.01
2019-03-26T16:43:52.808Z,53.08
2019-03-26T16:46:22.752Z,53.34
2019-03-26T16:48:52.719Z,53.50
2019-03-26T16:51:22.821Z,53.14
2019-03-26T16:53:52.905Z,54.02
2019-03-26T16:56:22.902Z,54.27
2019-03-26T16:58:52.863Z,54.92
2019-03-26T17:01:22.860Z,54.67
2019-03-26T17:03:52.806Z,54.91
2019-03-26T17:06:22.767Z,54.29
2019-03-26T17:08:52.744Z,55.26
2019-03-26T17:11:22.696Z,54.95
2019-03-26T17:13:52.670Z,54.93
2019-03-26T17:16:22.628Z,55.16
2019-03-26T17:18:52.631Z,55.26
2019-03-26T17:21:22.602Z,54.99
2019-03-26T17:23:52.670Z,55.24
2019-03-26T17:26:22.793Z,54.45
2019-03-26T17:28:52.881Z,55.66
2019-03-26T17:31:22.958Z,55.60
2019-03-26T17:33:52.835Z,55.67
2019-03-26T17:36:22.868Z,55.55
2019-03-26T17:38:52.820Z,55.86
2019-03-26T17:41:22.812Z,56.07
2019-03-26T17:43:52.784Z,55.96
2019-03-26T17:46:22.732Z,56.78
2019-03-26T17:48:52.822Z,57.40
2019-03-26T17:51:22.832Z,57.19
2019-03-26T17:53:52.828Z,57.30
2019-03-26T17:56:22.901Z,56.94
2019-03-26T17:58:52.913Z,56.94
2019-03-26T18:01:22.933Z,57.35
2019-03-26T18:03:52.927Z,57.46
2019-03-26T18:06:22.902Z,57.42
2019-03-26T18:08:52.879Z,58.08
2019-03-26T18:11:22.852Z,57.34
2019-03-26T18:13:52.843Z,58.06
2019-03-26T18:16:22.797Z,58.74
2019-03-26T18:18:55.020Z,58.63
2019-03-26T18:21:22.888Z,59.05
2019-03-26T18:23:52.856Z,59.21
2019-03-26T18:26:22.809Z,59.12
2019-03-26T18:28:55.327Z,59.73
2019-03-26T18:31:22.792Z,59.74
2019-03-26T18:33:52.762Z,60.00
2019-03-26T18:36:22.758Z,60.27
2019-03-26T18:38:52.706Z,60.57
2019-03-26T18:41:22.699Z,60.52
2019-03-26T18:43:52.719Z,60.82
2019-03-26T18:46:22.675Z,60.80
2019-03-26T18:48:52.654Z,61.15
2019-03-26T18:51:22.625Z,61.48
2019-03-26T18:53:53.981Z,61.93
2019-03-26T18:56:23.950Z,62.01
2019-03-26T18:58:53.937Z,61.91
2019-03-26T19:01:23.972Z,62.28
2019-03-26T19:03:53.924Z,62.44
2019-03-26T19:06:23.912Z,62.63
2019-03-26T19:08:53.889Z,62.75
2019-03-26T19:11:23.839Z,62.97
2019-03-26T19:13:53.834Z,63.01
2019-03-26T19:16:23.795Z,62.82
2019-03-26T19:18:53.755Z,62.25
2019-03-26T19:21:23.741Z,62.46
2019-03-26T19:24:03.373Z,62.64
2019-03-26T19:26:23.685Z,62.46
2019-03-26T19:28:53.635Z,62.84
2019-03-26T19:31:23.665Z,63.07
2019-03-26T19:33:53.624Z,63.42
2019-03-26T19:36:23.618Z,63.42
2019-03-26T19:38:53.562Z,63.65
2019-03-26T19:41:23.521Z,63.41
2019-03-26T19:43:53.523Z,63.21
2019-03-26T19:46:23.492Z,63.42
2019-03-26T19:48:53.509Z,63.75
2019-03-26T19:51:23.478Z,63.77
2019-03-26T19:53:53.511Z,64.18
2019-03-26T19:56:23.496Z,63.96
2019-03-26T19:58:53.533Z,64.44
2019-03-26T20:01:23.534Z,64.68
2019-03-26T20:03:53.514Z,64.38
2019-03-26T20:06:23.526Z,64.50
2019-03-26T20:08:53.509Z,64.82
2019-03-26T20:11:23.437Z,64.84
2019-03-26T20:13:53.516Z,65.20
2019-03-26T20:16:23.459Z,65.21
2019-03-26T20:18:58.288Z,65.34
2019-03-26T20:21:28.237Z,65.57
2019-03-26T20:24:01.145Z,65.67
2019-03-26T20:26:31.139Z,65.56
2019-03-26T20:29:01.070Z,65.65
2019-03-26T20:31:31.046Z,65.80
2019-03-26T20:34:01.016Z,65.86
2019-03-26T20:36:30.991Z,66.16
2019-03-26T20:39:01.036Z,66.42
2019-03-26T20:41:31.026Z,66.50
2019-03-26T20:44:00.999Z,66.83
2019-03-26T20:46:30.954Z,66.67
2019-03-26T20:49:00.967Z,66.90
2019-03-26T20:51:30.928Z,66.93
2019-03-26T20:54:00.945Z,67.24
2019-03-26T20:56:30.969Z,67.40
2019-03-26T20:59:00.948Z,66.41
2019-03-26T21:01:30.899Z,66.00
2019-03-26T21:04:00.889Z,67.38
2019-03-26T21:06:30.826Z,67.45
2019-03-26T21:09:00.837Z,67.67
2019-03-26T21:11:30.842Z,67.72
2019-03-26T21:14:00.827Z,67.89
2019-03-26T21:16:30.773Z,68.21
2019-03-26T21:19:00.748Z,68.32
2019-03-26T21:21:30.709Z,67.38
2019-03-26T21:24:00.706Z,68.48
2019-03-26T21:26:30.658Z,68.38
2019-03-26T21:29:00.607Z,68.76
2019-03-26T21:31:30.571Z,68.95
2019-03-26T21:34:00.940Z,68.96
2019-03-26T21:36:30.968Z,68.88
2019-03-26T21:39:00.919Z,69.04
2019-03-26T21:41:30.899Z,69.37
2019-03-26T21:44:04.465Z,69.46
2019-03-26T21:46:30.894Z,69.53
2019-03-26T21:49:00.840Z,69.70
2019-03-26T21:51:30.810Z,68.37
2019-03-26T21:54:00.775Z,69.39
2019-03-26T21:56:30.770Z,69.61
2019-03-26T21:59:00.786Z,69.57
2019-03-26T22:01:30.765Z,69.38
2019-03-26T22:04:00.728Z,69.82
2019-03-26T22:06:30.712Z,70.04
2019-03-26T22:09:00.789Z,70.01
2019-03-26T22:11:30.786Z,68.77
2019-03-26T22:14:00.790Z,69.77
2019-03-26T22:16:30.765Z,69.98
2019-03-26T22:19:00.750Z,69.87
2019-03-26T22:21:30.711Z,70.64
2019-03-26T22:24:00.676Z,70.73
2019-03-26T22:26:30.739Z,70.66
2019-03-26T22:29:00.757Z,70.63
2019-03-26T22:31:30.826Z,70.94
2019-03-26T22:34:00.810Z,71.27
2019-03-26T22:36:30.761Z,71.33
2019-03-26T22:39:01.269Z,69.93
2019-03-26T22:41:31.320Z,70.90
2019-03-26T22:44:01.306Z,71.24
2019-03-26T22:46:31.260Z,71.45
2019-03-26T22:49:01.258Z,71.62
2019-03-26T22:51:31.230Z,71.66
2019-03-26T22:54:01.206Z,71.66
2019-03-26T22:56:31.191Z,71.70
2019-03-26T22:59:01.168Z,71.83
2019-03-26T23:01:31.128Z,71.78
2019-03-26T23:04:01.092Z,71.81
2019-03-26T23:06:31.054Z,71.89
2019-03-26T23:09:01.032Z,71.79
2019-03-26T23:11:30.980Z,72.06
2019-03-26T23:14:01.001Z,72.04
2019-03-26T23:16:30.951Z,72.40
2019-03-26T23:19:00.920Z,72.27
2019-03-26T23:21:30.890Z,71.16
2019-03-26T23:24:00.875Z,71.65
2019-03-26T23:26:30.860Z,71.70
2019-03-26T23:29:00.807Z,71.87
2019-03-26T23:31:30.809Z,72.12
2019-03-26T23:34:00.769Z,72.25
2019-03-26T23:36:30.735Z,72.37
2019-03-26T23:39:00.673Z,72.35
2019-03-26T23:41:30.651Z,71.16
2019-03-26T23:44:00.609Z,72.12
2019-03-26T23:46:30.585Z,71.95
2019-03-26T23:49:00.538Z,72.05
2019-03-26T23:51:30.499Z,72.37
2019-03-26T23:54:00.459Z,72.80
2019-03-26T23:56:30.441Z,72.85
2019-03-26T23:59:00.388Z,72.92
